sensor_id;sensor_type;location;lat;lon;timestamp;P1;durP1;ratioP1;P2;durP2;ratioP2
26696;SDS011;14312;52.614;13.496;2023-07-20T00:01:50;1.80;;;1.70;;
26696;SDS011;14312;52.614;13.496;2023-07-20T00:04:35;1.60;;;1.50;;
26696;SDS011;14312;52.614;13.496;2023-07-20T00:07:21;1.77;;;1.67;;
26696;SDS011;14312;52.614;13.496;2023-07-20T00:10:07;1.70;;;1.60;;
26696;SDS011;14312;52.614;13.496;2023-07-20T00:12:54;2.03;;;1.58;;
26696;SDS011;14312;52.614;13.496;2023-07-20T00:15:39;1.65;;;1.55;;
26696;SDS011;14312;52.614;13.496;2023-07-20T00:18:25;1.55;;;1.45;;
26696;SDS011;14312;52.614;13.496;2023-07-20T00:21:11;1.67;;;1.50;;
26696;SDS011;14312;52.614;13.496;2023-07-20T00:23:57;2.10;;;1.77;;
26696;SDS011;14312;52.614;13.496;2023-07-20T00:26:43;1.67;;;1.58;;
26696;SDS011;14312;52.614;13.496;2023-07-20T00:29:29;2.47;;;1.70;;
26696;SDS011;14312;52.614;13.496;2023-07-20T00:32:15;2.08;;;1.77;;
26696;SDS011;14312;52.614;13.496;2023-07-20T00:35:01;1.95;;;1.73;;
26696;SDS011;14312;52.614;13.496;2023-07-20T00:37:48;1.60;;;1.50;;
26696;SDS011;14312;52.614;13.496;2023-07-20T00:40:37;1.60;;;1.50;;
26696;SDS011;14312;52.614;13.496;2023-07-20T00:43:24;1.75;;;1.65;;
26696;SDS011;14312;52.614;13.496;2023-07-20T00:46:10;2.53;;;1.90;;
26696;SDS011;14312;52.614;13.496;2023-07-20T00:48:56;2.08;;;1.83;;
26696;SDS011;14312;52.614;13.496;2023-07-20T00:51:42;1.95;;;1.85;;
26696;SDS011;14312;52.614;13.496;2023-07-20T00:54:29;2.20;;;1.75;;
26696;SDS011;14312;52.614;13.496;2023-07-20T00:57:15;2.20;;;1.95;;
26696;SDS011;14312;52.614;13.496;2023-07-20T01:00:03;2.53;;;1.90;;
26696;SDS011;14312;52.614;13.496;2023-07-20T01:02:50;1.98;;;1.70;;
26696;SDS011;14312;52.614;13.496;2023-07-20T01:05:41;2.10;;;1.90;;
26696;SDS011;14312;52.614;13.496;2023-07-20T01:14:55;1.90;;;1.80;;
26696;SDS011;14312;52.614;13.496;2023-07-20T01:17:41;2.00;;;1.80;;
26696;SDS011;14312;52.614;13.496;2023-07-20T01:20:27;2.00;;;1.83;;
26696;SDS011;14312;52.614;13.496;2023-07-20T01:26:30;1.70;;;1.60;;
26696;SDS011;14312;52.614;13.496;2023-07-20T01:29:41;2.33;;;1.70;;
26696;SDS011;14312;52.614;13.496;2023-07-20T01:32:47;2.08;;;1.80;;
26696;SDS011;14312;52.614;13.496;2023-07-20T01:35:33;1.98;;;1.88;;
26696;SDS011;14312;52.614;13.496;2023-07-20T01:38:22;2.17;;;1.98;;
26696;SDS011;14312;52.614;13.496;2023-07-20T01:41:09;2.72;;;1.90;;
26696;SDS011;14312;52.614;13.496;2023-07-20T01:43:59;2.50;;;2.10;;
26696;SDS011;14312;52.614;13.496;2023-07-20T01:46:45;2.20;;;2.00;;
26696;SDS011;14312;52.614;13.496;2023-07-20T01:49:31;1.65;;;1.55;;
26696;SDS011;14312;52.614;13.496;2023-07-20T01:52:18;2.03;;;1.63;;
26696;SDS011;14312;52.614;13.496;2023-07-20T01:55:04;2.00;;;1.85;;
26696;SDS011;14312;52.614;13.496;2023-07-20T01:57:50;2.35;;;2.15;;
26696;SDS011;14312;52.614;13.496;2023-07-20T02:00:39;2.45;;;2.25;;
26696;SDS011;14312;52.614;13.496;2023-07-20T02:03:25;2.97;;;2.58;;
26696;SDS011;14312;52.614;13.496;2023-07-20T02:06:12;3.67;;;3.38;;
26696;SDS011;14312;52.614;13.496;2023-07-20T02:08:57;3.58;;;3.22;;
26696;SDS011;14312;52.614;13.496;2023-07-20T02:11:44;3.13;;;2.90;;
26696;SDS011;14312;52.614;13.496;2023-07-20T02:14:30;3.45;;;3.15;;
26696;SDS011;14312;52.614;13.496;2023-07-20T02:17:16;3.30;;;3.00;;
26696;SDS011;14312;52.614;13.496;2023-07-20T02:20:02;3.42;;;3.13;;
26696;SDS011;14312;52.614;13.496;2023-07-20T02:22:48;2.90;;;2.70;;
26696;SDS011;14312;52.614;13.496;2023-07-20T02:25:34;3.20;;;2.90;;
26696;SDS011;14312;52.614;13.496;2023-07-20T02:28:20;3.72;;;3.25;;
26696;SDS011;14312;52.614;13.496;2023-07-20T02:31:06;3.90;;;3.10;;
26696;SDS011;14312;52.614;13.496;2023-07-20T02:33:52;5.28;;;3.78;;
26696;SDS011;14312;52.614;13.496;2023-07-20T02:36:38;4.47;;;4.07;;
26696;SDS011;14312;52.614;13.496;2023-07-20T02:39:24;3.83;;;3.53;;
26696;SDS011;14312;52.614;13.496;2023-07-20T02:42:10;3.60;;;3.30;;
26696;SDS011;14312;52.614;13.496;2023-07-20T02:44:56;3.15;;;2.90;;
26696;SDS011;14312;52.614;13.496;2023-07-20T02:47:42;3.55;;;3.00;;
26696;SDS011;14312;52.614;13.496;2023-07-20T02:50:28;3.10;;;2.80;;
26696;SDS011;14312;52.614;13.496;2023-07-20T02:53:14;2.75;;;2.55;;
26696;SDS011;14312;52.614;13.496;2023-07-20T02:56:00;3.17;;;2.88;;
26696;SDS011;14312;52.614;13.496;2023-07-20T02:58:46;3.13;;;2.83;;
26696;SDS011;14312;52.614;13.496;2023-07-20T03:01:32;3.58;;;3.00;;
26696;SDS011;14312;52.614;13.496;2023-07-20T03:04:18;3.35;;;3.08;;
26696;SDS011;14312;52.614;13.496;2023-07-20T03:07:04;4.13;;;3.33;;
26696;SDS011;14312;52.614;13.496;2023-07-20T03:09:51;4.38;;;3.97;;
26696;SDS011;14312;52.614;13.496;2023-07-20T03:12:37;4.03;;;3.72;;
26696;SDS011;14312;52.614;13.496;2023-07-20T03:15:22;3.85;;;3.05;;
26696;SDS011;14312;52.614;13.496;2023-07-20T03:18:08;2.92;;;2.72;;
26696;SDS011;14312;52.614;13.496;2023-07-20T03:20:54;3.22;;;3.00;;
26696;SDS011;14312;52.614;13.496;2023-07-20T03:23:40;3.13;;;2.92;;
26696;SDS011;14312;52.614;13.496;2023-07-20T03:26:27;3.00;;;2.80;;
26696;SDS011;14312;52.614;13.496;2023-07-20T03:29:13;3.90;;;3.33;;
26696;SDS011;14312;52.614;13.496;2023-07-20T03:31:59;3.45;;;3.15;;
26696;SDS011;14312;52.614;13.496;2023-07-20T03:34:45;3.10;;;2.90;;
26696;SDS011;14312;52.614;13.496;2023-07-20T03:37:31;3.60;;;3.30;;
26696;SDS011;14312;52.614;13.496;2023-07-20T03:40:17;3.28;;;3.08;;
26696;SDS011;14312;52.614;13.496;2023-07-20T03:43:03;3.72;;;3.42;;
26696;SDS011;14312;52.614;13.496;2023-07-20T03:45:49;3.35;;;3.05;;
26696;SDS011;14312;52.614;13.496;2023-07-20T03:48:35;3.78;;;3.33;;
26696;SDS011;14312;52.614;13.496;2023-07-20T03:51:21;3.85;;;3.45;;
26696;SDS011;14312;52.614;13.496;2023-07-20T03:54:07;3.95;;;3.65;;
26696;SDS011;14312;52.614;13.496;2023-07-20T03:56:53;4.18;;;3.83;;
26696;SDS011;14312;52.614;13.496;2023-07-20T03:59:39;4.70;;;3.40;;
26696;SDS011;14312;52.614;13.496;2023-07-20T04:02:25;3.38;;;3.10;;
26696;SDS011;14312;52.614;13.496;2023-07-20T04:05:11;4.07;;;3.78;;
26696;SDS011;14312;52.614;13.496;2023-07-20T04:07:57;4.00;;;3.70;;
26696;SDS011;14312;52.614;13.496;2023-07-20T04:10:44;3.67;;;3.38;;
26696;SDS011;14312;52.614;13.496;2023-07-20T04:13:30;3.83;;;3.53;;
26696;SDS011;14312;52.614;13.496;2023-07-20T04:16:18;3.75;;;3.45;;
26696;SDS011;14312;52.614;13.496;2023-07-20T04:19:05;3.75;;;3.45;;
26696;SDS011;14312;52.614;13.496;2023-07-20T04:21:51;3.80;;;3.50;;
26696;SDS011;14312;52.614;13.496;2023-07-20T04:24:37;3.42;;;3.13;;
26696;SDS011;14312;52.614;13.496;2023-07-20T04:27:23;3.88;;;3.58;;
26696;SDS011;14312;52.614;13.496;2023-07-20T04:30:09;3.53;;;3.22;;
26696;SDS011;14312;52.614;13.496;2023-07-20T04:32:57;3.65;;;3.35;;
26696;SDS011;14312;52.614;13.496;2023-07-20T04:35:47;3.63;;;3.33;;
26696;SDS011;14312;52.614;13.496;2023-07-20T04:38:39;3.80;;;3.50;;
26696;SDS011;14312;52.614;13.496;2023-07-20T04:41:25;4.53;;;4.13;;
26696;SDS011;14312;52.614;13.496;2023-07-20T04:44:13;4.28;;;3.95;;
26696;SDS011;14312;52.614;13.496;2023-07-20T04:46:59;4.20;;;3.80;;
26696;SDS011;14312;52.614;13.496;2023-07-20T04:49:45;3.75;;;3.45;;
26696;SDS011;14312;52.614;13.496;2023-07-20T04:52:31;4.38;;;3.90;;
26696;SDS011;14312;52.614;13.496;2023-07-20T04:55:18;3.83;;;3.53;;
26696;SDS011;14312;52.614;13.496;2023-07-20T04:58:04;4.28;;;3.97;;
26696;SDS011;14312;52.614;13.496;2023-07-20T05:00:50;4.03;;;3.72;;
26696;SDS011;14312;52.614;13.496;2023-07-20T05:03:37;3.55;;;3.25;;
26696;SDS011;14312;52.614;13.496;2023-07-20T05:06:23;4.15;;;3.85;;
26696;SDS011;14312;52.614;13.496;2023-07-20T05:09:09;3.97;;;3.67;;
26696;SDS011;14312;52.614;13.496;2023-07-20T05:11:55;3.95;;;3.65;;
26696;SDS011;14312;52.614;13.496;2023-07-20T05:14:40;3.60;;;3.30;;
26696;SDS011;14312;52.614;13.496;2023-07-20T05:17:27;3.20;;;2.95;;
26696;SDS011;14312;52.614;13.496;2023-07-20T05:20:13;3.60;;;3.30;;
26696;SDS011;14312;52.614;13.496;2023-07-20T05:22:59;3.67;;;3.40;;
26696;SDS011;14312;52.614;13.496;2023-07-20T05:25:46;3.80;;;3.50;;
26696;SDS011;14312;52.614;13.496;2023-07-20T05:28:33;3.22;;;3.03;;
26696;SDS011;14312;52.614;13.496;2023-07-20T05:31:19;3.83;;;3.53;;
26696;SDS011;14312;52.614;13.496;2023-07-20T05:34:05;3.28;;;3.08;;
26696;SDS011;14312;52.614;13.496;2023-07-20T05:37:09;2.90;;;2.70;;
26696;SDS011;14312;52.614;13.496;2023-07-20T05:39:55;3.53;;;3.25;;
26696;SDS011;14312;52.614;13.496;2023-07-20T05:42:41;3.00;;;2.80;;
26696;SDS011;14312;52.614;13.496;2023-07-20T05:45:26;2.78;;;2.58;;
26696;SDS011;14312;52.614;13.496;2023-07-20T05:48:12;3.03;;;2.83;;
26696;SDS011;14312;52.614;13.496;2023-07-20T05:50:58;2.88;;;2.67;;
26696;SDS011;14312;52.614;13.496;2023-07-20T05:53:44;2.75;;;2.58;;
26696;SDS011;14312;52.614;13.496;2023-07-20T05:56:30;2.83;;;2.63;;
26696;SDS011;14312;52.614;13.496;2023-07-20T05:59:16;2.95;;;2.60;;
26696;SDS011;14312;52.614;13.496;2023-07-20T06:02:02;3.28;;;3.08;;
26696;SDS011;14312;52.614;13.496;2023-07-20T06:04:48;3.15;;;2.85;;
26696;SDS011;14312;52.614;13.496;2023-07-20T06:07:38;3.03;;;2.83;;
26696;SDS011;14312;52.614;13.496;2023-07-20T06:10:24;2.58;;;2.38;;
26696;SDS011;14312;52.614;13.496;2023-07-20T06:13:10;3.05;;;2.67;;
26696;SDS011;14312;52.614;13.496;2023-07-20T06:15:56;2.47;;;2.28;;
26696;SDS011;14312;52.614;13.496;2023-07-20T06:18:42;2.53;;;2.35;;
26696;SDS011;14312;52.614;13.496;2023-07-20T06:21:28;2.65;;;2.45;;
26696;SDS011;14312;52.614;13.496;2023-07-20T06:24:14;2.15;;;1.98;;
26696;SDS011;14312;52.614;13.496;2023-07-20T06:27:00;2.08;;;1.98;;
26696;SDS011;14312;52.614;13.496;2023-07-20T06:29:46;1.95;;;1.85;;
26696;SDS011;14312;52.614;13.496;2023-07-20T06:32:32;2.30;;;2.10;;
26696;SDS011;14312;52.614;13.496;2023-07-20T06:35:18;1.90;;;1.80;;
26696;SDS011;14312;52.614;13.496;2023-07-20T06:38:04;2.05;;;1.95;;
26696;SDS011;14312;52.614;13.496;2023-07-20T06:40:50;2.05;;;1.95;;
26696;SDS011;14312;52.614;13.496;2023-07-20T06:43:36;1.58;;;1.48;;
26696;SDS011;14312;52.614;13.496;2023-07-20T06:46:22;1.60;;;1.50;;
26696;SDS011;14312;52.614;13.496;2023-07-20T06:49:08;2.85;;;1.52;;
26696;SDS011;14312;52.614;13.496;2023-07-20T06:51:54;1.70;;;1.60;;
26696;SDS011;14312;52.614;13.496;2023-07-20T06:54:40;1.50;;;1.40;;
26696;SDS011;14312;52.614;13.496;2023-07-20T06:57:26;1.48;;;1.38;;
26696;SDS011;14312;52.614;13.496;2023-07-20T07:00:12;1.67;;;1.58;;
26696;SDS011;14312;52.614;13.496;2023-07-20T07:02:59;1.50;;;1.20;;
26696;SDS011;14312;52.614;13.496;2023-07-20T07:05:45;1.42;;;1.33;;
26696;SDS011;14312;52.614;13.496;2023-07-20T07:08:31;1.30;;;1.25;;
26696;SDS011;14312;52.614;13.496;2023-07-20T07:11:17;1.00;;;1.00;;
26696;SDS011;14312;52.614;13.496;2023-07-20T07:14:03;1.27;;;0.90;;
26696;SDS011;14312;52.614;13.496;2023-07-20T07:16:49;1.23;;;1.02;;
26696;SDS011;14312;52.614;13.496;2023-07-20T07:19:35;1.30;;;1.10;;
26696;SDS011;14312;52.614;13.496;2023-07-20T07:22:22;2.38;;;1.60;;
26696;SDS011;14312;52.614;13.496;2023-07-20T07:25:08;0.90;;;0.90;;
26696;SDS011;14312;52.614;13.496;2023-07-20T07:27:54;1.27;;;1.17;;
26696;SDS011;14312;52.614;13.496;2023-07-20T07:30:41;1.83;;;1.00;;
26696;SDS011;14312;52.614;13.496;2023-07-20T07:33:27;1.15;;;1.05;;
26696;SDS011;14312;52.614;13.496;2023-07-20T07:36:13;0.90;;;0.90;;
26696;SDS011;14312;52.614;13.496;2023-07-20T07:38:59;0.90;;;0.90;;
26696;SDS011;14312;52.614;13.496;2023-07-20T07:41:45;1.30;;;1.00;;
26696;SDS011;14312;52.614;13.496;2023-07-20T07:44:31;0.80;;;0.80;;
26696;SDS011;14312;52.614;13.496;2023-07-20T07:47:17;0.80;;;0.80;;
26696;SDS011;14312;52.614;13.496;2023-07-20T07:50:03;1.48;;;0.90;;
26696;SDS011;14312;52.614;13.496;2023-07-20T07:52:49;1.23;;;1.13;;
26696;SDS011;14312;52.614;13.496;2023-07-20T07:55:35;0.80;;;0.80;;
26696;SDS011;14312;52.614;13.496;2023-07-20T07:58:21;0.90;;;0.90;;
26696;SDS011;14312;52.614;13.496;2023-07-20T08:01:07;0.82;;;0.82;;
26696;SDS011;14312;52.614;13.496;2023-07-20T08:03:53;1.20;;;0.88;;
26696;SDS011;14312;52.614;13.496;2023-07-20T08:06:39;2.08;;;0.88;;
26696;SDS011;14312;52.614;13.496;2023-07-20T08:09:25;0.82;;;0.82;;
26696;SDS011;14312;52.614;13.496;2023-07-20T08:12:11;0.98;;;0.80;;
26696;SDS011;14312;52.614;13.496;2023-07-20T08:14:59;0.75;;;0.70;;
26696;SDS011;14312;52.614;13.496;2023-07-20T08:17:44;0.80;;;0.80;;
26696;SDS011;14312;52.614;13.496;2023-07-20T08:20:30;0.90;;;0.90;;
26696;SDS011;14312;52.614;13.496;2023-07-20T08:23:17;1.00;;;1.00;;
26696;SDS011;14312;52.614;13.496;2023-07-20T08:26:03;0.90;;;0.90;;
26696;SDS011;14312;52.614;13.496;2023-07-20T08:28:49;0.75;;;0.75;;
26696;SDS011;14312;52.614;13.496;2023-07-20T08:31:35;0.90;;;0.80;;
26696;SDS011;14312;52.614;13.496;2023-07-20T08:34:21;0.90;;;0.80;;
26696;SDS011;14312;52.614;13.496;2023-07-20T08:37:07;0.70;;;0.70;;
26696;SDS011;14312;52.614;13.496;2023-07-20T08:39:55;0.70;;;0.70;;
26696;SDS011;14312;52.614;13.496;2023-07-20T08:42:41;0.60;;;0.60;;
26696;SDS011;14312;52.614;13.496;2023-07-20T08:45:28;0.60;;;0.60;;
26696;SDS011;14312;52.614;13.496;2023-07-20T08:48:17;0.80;;;0.80;;
26696;SDS011;14312;52.614;13.496;2023-07-20T08:51:05;0.70;;;0.70;;
26696;SDS011;14312;52.614;13.496;2023-07-20T08:53:51;0.70;;;0.70;;
26696;SDS011;14312;52.614;13.496;2023-07-20T08:56:37;0.68;;;0.68;;
26696;SDS011;14312;52.614;13.496;2023-07-20T08:59:26;0.68;;;0.68;;
26696;SDS011;14312;52.614;13.496;2023-07-20T09:02:15;1.40;;;0.73;;
26696;SDS011;14312;52.614;13.496;2023-07-20T09:05:03;0.68;;;0.68;;
26696;SDS011;14312;52.614;13.496;2023-07-20T09:07:53;0.52;;;0.52;;
26696;SDS011;14312;52.614;13.496;2023-07-20T09:10:39;0.70;;;0.70;;
26696;SDS011;14312;52.614;13.496;2023-07-20T09:13:25;0.60;;;0.60;;
26696;SDS011;14312;52.614;13.496;2023-07-20T09:16:13;0.68;;;0.68;;
26696;SDS011;14312;52.614;13.496;2023-07-20T09:19:00;0.70;;;0.70;;
26696;SDS011;14312;52.614;13.496;2023-07-20T09:21:48;0.68;;;0.68;;
26696;SDS011;14312;52.614;13.496;2023-07-20T09:24:34;0.70;;;0.70;;
26696;SDS011;14312;52.614;13.496;2023-07-20T09:27:20;0.63;;;0.63;;
26696;SDS011;14312;52.614;13.496;2023-07-20T09:30:07;0.63;;;0.63;;
26696;SDS011;14312;52.614;13.496;2023-07-20T09:32:54;0.60;;;0.60;;
26696;SDS011;14312;52.614;13.496;2023-07-20T09:35:40;0.60;;;0.60;;
26696;SDS011;14312;52.614;13.496;2023-07-20T09:38:25;0.70;;;0.70;;
26696;SDS011;14312;52.614;13.496;2023-07-20T09:41:15;0.70;;;0.70;;
26696;SDS011;14312;52.614;13.496;2023-07-20T09:44:01;0.73;;;0.73;;
26696;SDS011;14312;52.614;13.496;2023-07-20T09:46:47;0.82;;;0.70;;
26696;SDS011;14312;52.614;13.496;2023-07-20T09:49:40;0.88;;;0.88;;
26696;SDS011;14312;52.614;13.496;2023-07-20T09:52:29;0.60;;;0.60;;
26696;SDS011;14312;52.614;13.496;2023-07-20T09:55:15;0.60;;;0.60;;
26696;SDS011;14312;52.614;13.496;2023-07-20T09:58:01;1.30;;;0.70;;
26696;SDS011;14312;52.614;13.496;2023-07-20T10:00:48;0.70;;;0.70;;
26696;SDS011;14312;52.614;13.496;2023-07-20T10:03:37;0.95;;;0.82;;
26696;SDS011;14312;52.614;13.496;2023-07-20T10:06:24;1.15;;;0.70;;
26696;SDS011;14312;52.614;13.496;2023-07-20T10:09:10;0.77;;;0.77;;
26696;SDS011;14312;52.614;13.496;2023-07-20T10:12:00;0.75;;;0.75;;
26696;SDS011;14312;52.614;13.496;2023-07-20T10:14:54;0.70;;;0.70;;
26696;SDS011;14312;52.614;13.496;2023-07-20T10:17:59;1.40;;;0.70;;
26696;SDS011;14312;52.614;13.496;2023-07-20T10:21:07;0.55;;;0.55;;
26696;SDS011;14312;52.614;13.496;2023-07-20T10:23:58;0.70;;;0.70;;
26696;SDS011;14312;52.614;13.496;2023-07-20T10:26:46;0.80;;;0.80;;
26696;SDS011;14312;52.614;13.496;2023-07-20T10:29:32;0.65;;;0.65;;
26696;SDS011;14312;52.614;13.496;2023-07-20T10:32:19;0.60;;;0.60;;
26696;SDS011;14312;52.614;13.496;2023-07-20T10:35:11;2.05;;;0.88;;
26696;SDS011;14312;52.614;13.496;2023-07-20T10:38:01;0.73;;;0.73;;
26696;SDS011;14312;52.614;13.496;2023-07-20T10:40:54;1.33;;;0.70;;
26696;SDS011;14312;52.614;13.496;2023-07-20T10:43:44;0.70;;;0.70;;
26696;SDS011;14312;52.614;13.496;2023-07-20T10:49:32;0.73;;;0.60;;
26696;SDS011;14312;52.614;13.496;2023-07-20T10:52:19;0.73;;;0.73;;
26696;SDS011;14312;52.614;13.496;2023-07-20T10:55:15;0.68;;;0.68;;
26696;SDS011;14312;52.614;13.496;2023-07-20T10:58:09;1.17;;;0.50;;
26696;SDS011;14312;52.614;13.496;2023-07-20T11:01:00;0.50;;;0.50;;
26696;SDS011;14312;52.614;13.496;2023-07-20T11:03:50;0.43;;;0.43;;
26696;SDS011;14312;52.614;13.496;2023-07-20T11:06:36;0.70;;;0.70;;
26696;SDS011;14312;52.614;13.496;2023-07-20T11:09:24;0.70;;;0.70;;
26696;SDS011;14312;52.614;13.496;2023-07-20T11:14:59;1.13;;;0.68;;
26696;SDS011;14312;52.614;13.496;2023-07-20T11:17:45;0.63;;;0.63;;
26696;SDS011;14312;52.614;13.496;2023-07-20T11:20:31;0.70;;;0.70;;
26696;SDS011;14312;52.614;13.496;2023-07-20T11:23:17;0.60;;;0.60;;
26696;SDS011;14312;52.614;13.496;2023-07-20T11:26:03;0.65;;;0.65;;
26696;SDS011;14312;52.614;13.496;2023-07-20T11:28:49;0.60;;;0.55;;
26696;SDS011;14312;52.614;13.496;2023-07-20T11:31:38;1.50;;;0.60;;
26696;SDS011;14312;52.614;13.496;2023-07-20T11:34:25;0.75;;;0.75;;
26696;SDS011;14312;52.614;13.496;2023-07-20T11:37:11;0.52;;;0.52;;
26696;SDS011;14312;52.614;13.496;2023-07-20T11:39:58;0.60;;;0.60;;
26696;SDS011;14312;52.614;13.496;2023-07-20T11:42:44;0.60;;;0.60;;
26696;SDS011;14312;52.614;13.496;2023-07-20T11:45:31;0.50;;;0.50;;
26696;SDS011;14312;52.614;13.496;2023-07-20T11:48:18;1.17;;;0.50;;
26696;SDS011;14312;52.614;13.496;2023-07-20T11:51:04;0.50;;;0.50;;
26696;SDS011;14312;52.614;13.496;2023-07-20T11:53:50;1.02;;;0.73;;
26696;SDS011;14312;52.614;13.496;2023-07-20T11:56:36;0.65;;;0.50;;
26696;SDS011;14312;52.614;13.496;2023-07-20T11:59:27;0.60;;;0.60;;
26696;SDS011;14312;52.614;13.496;2023-07-20T12:02:13;1.88;;;0.60;;
26696;SDS011;14312;52.614;13.496;2023-07-20T12:04:59;0.70;;;0.50;;
26696;SDS011;14312;52.614;13.496;2023-07-20T12:07:45;0.68;;;0.63;;
26696;SDS011;14312;52.614;13.496;2023-07-20T12:10:33;0.60;;;0.60;;
26696;SDS011;14312;52.614;13.496;2023-07-20T12:13:19;0.68;;;0.68;;
26696;SDS011;14312;52.614;13.496;2023-07-20T12:16:12;0.50;;;0.50;;
26696;SDS011;14312;52.614;13.496;2023-07-20T12:19:00;0.55;;;0.50;;
26696;SDS011;14312;52.614;13.496;2023-07-20T12:21:50;0.60;;;0.60;;
26696;SDS011;14312;52.614;13.496;2023-07-20T12:24:45;0.50;;;0.50;;
26696;SDS011;14312;52.614;13.496;2023-07-20T12:27:31;0.95;;;0.65;;
26696;SDS011;14312;52.614;13.496;2023-07-20T12:30:17;0.50;;;0.50;;
26696;SDS011;14312;52.614;13.496;2023-07-20T12:33:04;0.80;;;0.80;;
26696;SDS011;14312;52.614;13.496;2023-07-20T12:35:50;0.70;;;0.70;;
26696;SDS011;14312;52.614;13.496;2023-07-20T12:38:38;0.82;;;0.70;;
26696;SDS011;14312;52.614;13.496;2023-07-20T12:41:24;0.60;;;0.60;;
26696;SDS011;14312;52.614;13.496;2023-07-20T12:44:10;0.50;;;0.50;;
26696;SDS011;14312;52.614;13.496;2023-07-20T12:46:56;0.60;;;0.60;;
26696;SDS011;14312;52.614;13.496;2023-07-20T12:49:42;0.70;;;0.70;;
26696;SDS011;14312;52.614;13.496;2023-07-20T12:52:30;0.68;;;0.68;;
26696;SDS011;14312;52.614;13.496;2023-07-20T12:55:16;1.30;;;0.68;;
26696;SDS011;14312;52.614;13.496;2023-07-20T12:58:02;0.73;;;0.73;;
26696;SDS011;14312;52.614;13.496;2023-07-20T13:00:48;0.60;;;0.60;;
26696;SDS011;14312;52.614;13.496;2023-07-20T13:03:35;0.60;;;0.60;;
26696;SDS011;14312;52.614;13.496;2023-07-20T13:06:21;1.27;;;0.90;;
26696;SDS011;14312;52.614;13.496;2023-07-20T13:09:07;0.95;;;0.80;;
26696;SDS011;14312;52.614;13.496;2023-07-20T13:11:53;0.80;;;0.80;;
26696;SDS011;14312;52.614;13.496;2023-07-20T13:14:39;0.70;;;0.70;;
26696;SDS011;14312;52.614;13.496;2023-07-20T13:17:26;0.70;;;0.70;;
26696;SDS011;14312;52.614;13.496;2023-07-20T13:20:12;0.70;;;0.70;;
26696;SDS011;14312;52.614;13.496;2023-07-20T13:22:58;0.70;;;0.70;;
26696;SDS011;14312;52.614;13.496;2023-07-20T13:25:44;0.60;;;0.60;;
26696;SDS011;14312;52.614;13.496;2023-07-20T13:28:30;0.65;;;0.60;;
26696;SDS011;14312;52.614;13.496;2023-07-20T13:31:16;0.88;;;0.75;;
26696;SDS011;14312;52.614;13.496;2023-07-20T13:34:03;0.80;;;0.80;;
26696;SDS011;14312;52.614;13.496;2023-07-20T13:36:48;0.80;;;0.80;;
26696;SDS011;14312;52.614;13.496;2023-07-20T13:39:35;0.77;;;0.77;;
26696;SDS011;14312;52.614;13.496;2023-07-20T13:42:20;0.70;;;0.70;;
26696;SDS011;14312;52.614;13.496;2023-07-20T13:45:07;0.50;;;0.50;;
26696;SDS011;14312;52.614;13.496;2023-07-20T13:47:53;1.67;;;0.80;;
26696;SDS011;14312;52.614;13.496;2023-07-20T13:50:39;0.60;;;0.60;;
26696;SDS011;14312;52.614;13.496;2023-07-20T13:53:25;0.55;;;0.55;;
26696;SDS011;14312;52.614;13.496;2023-07-20T13:56:13;0.80;;;0.80;;
26696;SDS011;14312;52.614;13.496;2023-07-20T13:58:59;0.52;;;0.52;;
26696;SDS011;14312;52.614;13.496;2023-07-20T14:01:45;1.02;;;0.70;;
26696;SDS011;14312;52.614;13.496;2023-07-20T14:04:31;0.60;;;0.60;;
26696;SDS011;14312;52.614;13.496;2023-07-20T14:07:17;0.75;;;0.75;;
26696;SDS011;14312;52.614;13.496;2023-07-20T14:10:03;0.68;;;0.60;;
26696;SDS011;14312;52.614;13.496;2023-07-20T14:12:50;0.73;;;0.60;;
26696;SDS011;14312;52.614;13.496;2023-07-20T14:15:36;0.82;;;0.70;;
26696;SDS011;14312;52.614;13.496;2023-07-20T14:18:22;0.57;;;0.57;;
26696;SDS011;14312;52.614;13.496;2023-07-20T14:21:08;0.73;;;0.50;;
26696;SDS011;14312;52.614;13.496;2023-07-20T14:23:54;0.70;;;0.70;;
26696;SDS011;14312;52.614;13.496;2023-07-20T14:26:39;0.70;;;0.70;;
26696;SDS011;14312;52.614;13.496;2023-07-20T14:29:25;0.60;;;0.60;;
26696;SDS011;14312;52.614;13.496;2023-07-20T14:32:12;0.60;;;0.60;;
26696;SDS011;14312;52.614;13.496;2023-07-20T14:34:58;0.60;;;0.60;;
26696;SDS011;14312;52.614;13.496;2023-07-20T14:37:44;0.68;;;0.68;;
26696;SDS011;14312;52.614;13.496;2023-07-20T14:40:32;0.70;;;0.70;;
26696;SDS011;14312;52.614;13.496;2023-07-20T14:43:18;0.68;;;0.68;;
26696;SDS011;14312;52.614;13.496;2023-07-20T14:46:04;0.70;;;0.70;;
26696;SDS011;14312;52.614;13.496;2023-07-20T14:48:50;0.88;;;0.70;;
26696;SDS011;14312;52.614;13.496;2023-07-20T14:51:37;0.70;;;0.70;;
26696;SDS011;14312;52.614;13.496;2023-07-20T14:54:28;0.70;;;0.70;;
26696;SDS011;14312;52.614;13.496;2023-07-20T14:57:14;0.60;;;0.60;;
26696;SDS011;14312;52.614;13.496;2023-07-20T15:00:01;0.60;;;0.60;;
26696;SDS011;14312;52.614;13.496;2023-07-20T15:02:49;2.78;;;0.60;;
26696;SDS011;14312;52.614;13.496;2023-07-20T15:05:34;0.82;;;0.68;;
26696;SDS011;14312;52.614;13.496;2023-07-20T15:08:22;1.35;;;0.65;;
26696;SDS011;14312;52.614;13.496;2023-07-20T15:11:08;0.60;;;0.60;;
26696;SDS011;14312;52.614;13.496;2023-07-20T15:13:54;0.60;;;0.60;;
26696;SDS011;14312;52.614;13.496;2023-07-20T15:16:40;0.70;;;0.70;;
26696;SDS011;14312;52.614;13.496;2023-07-20T15:19:26;0.70;;;0.70;;
26696;SDS011;14312;52.614;13.496;2023-07-20T15:22:12;0.60;;;0.60;;
26696;SDS011;14312;52.614;13.496;2023-07-20T15:24:58;0.70;;;0.70;;
26696;SDS011;14312;52.614;13.496;2023-07-20T15:27:46;0.70;;;0.70;;
26696;SDS011;14312;52.614;13.496;2023-07-20T15:30:32;0.70;;;0.70;;
26696;SDS011;14312;52.614;13.496;2023-07-20T15:33:17;0.70;;;0.70;;
26696;SDS011;14312;52.614;13.496;2023-07-20T15:36:03;1.08;;;1.00;;
26696;SDS011;14312;52.614;13.496;2023-07-20T15:38:50;0.68;;;0.68;;
26696;SDS011;14312;52.614;13.496;2023-07-20T15:41:36;0.95;;;0.70;;
26696;SDS011;14312;52.614;13.496;2023-07-20T15:44:22;0.75;;;0.75;;
26696;SDS011;14312;52.614;13.496;2023-07-20T15:47:08;0.70;;;0.70;;
26696;SDS011;14312;52.614;13.496;2023-07-20T15:49:54;0.75;;;0.75;;
26696;SDS011;14312;52.614;13.496;2023-07-20T15:52:40;1.55;;;0.82;;
26696;SDS011;14312;52.614;13.496;2023-07-20T15:55:27;0.60;;;0.60;;
26696;SDS011;14312;52.614;13.496;2023-07-20T15:58:13;2.53;;;0.80;;
26696;SDS011;14312;52.614;13.496;2023-07-20T16:00:59;0.80;;;0.80;;
26696;SDS011;14312;52.614;13.496;2023-07-20T16:03:45;0.80;;;0.80;;
26696;SDS011;14312;52.614;13.496;2023-07-20T16:06:31;2.53;;;0.90;;
26696;SDS011;14312;52.614;13.496;2023-07-20T16:09:18;0.73;;;0.73;;
26696;SDS011;14312;52.614;13.496;2023-07-20T16:12:05;0.80;;;0.80;;
26696;SDS011;14312;52.614;13.496;2023-07-20T16:14:51;1.52;;;0.93;;
26696;SDS011;14312;52.614;13.496;2023-07-20T16:17:37;1.60;;;0.80;;
26696;SDS011;14312;52.614;13.496;2023-07-20T16:20:23;2.22;;;1.17;;
26696;SDS011;14312;52.614;13.496;2023-07-20T16:23:09;0.95;;;0.95;;
26696;SDS011;14312;52.614;13.496;2023-07-20T16:25:55;0.80;;;0.80;;
26696;SDS011;14312;52.614;13.496;2023-07-20T16:28:41;1.23;;;0.90;;
26696;SDS011;14312;52.614;13.496;2023-07-20T16:31:28;1.33;;;0.90;;
26696;SDS011;14312;52.614;13.496;2023-07-20T16:34:14;1.13;;;1.08;;
26696;SDS011;14312;52.614;13.496;2023-07-20T16:37:00;0.70;;;0.70;;
26696;SDS011;14312;52.614;13.496;2023-07-20T16:39:49;0.80;;;0.80;;
26696;SDS011;14312;52.614;13.496;2023-07-20T16:42:36;1.38;;;1.00;;
26696;SDS011;14312;52.614;13.496;2023-07-20T16:45:22;1.05;;;1.00;;